createdAt,value
2023-04-01T00:02:12.218Z,96002.56
2023-04-01T00:04:43.297Z,96009.88
2023-04-01T00:07:14.184Z,96016.09
2023-04-01T00:09:44.929Z,96018.50
2023-04-01T00:12:15.936Z,96017.94
2023-04-01T00:14:46.970Z,96011.63
2023-04-01T00:17:20.538Z,96017.06
2023-04-01T00:19:51.396Z,96015.59
2023-04-01T00:22:22.597Z,96014.88
2023-04-01T00:24:53.275Z,96010.41
2023-04-01T00:27:24.351Z,96012.22
2023-04-01T00:29:55.207Z,96011.91
2023-04-01T00:32:28.685Z,96013.03
2023-04-01T00:35:00.317Z,96001.53
2023-04-01T00:37:31.662Z,96004.91
2023-04-01T00:40:02.403Z,96007.50
2023-04-01T00:42:34.063Z,96000.13
2023-04-01T00:45:38.835Z,95989.81
2023-04-01T00:48:17.311Z,95975.75
2023-04-01T00:50:52.011Z,95983.41
2023-04-01T00:53:24.245Z,95967.06
2023-04-01T00:56:01.092Z,95973.47
2023-04-01T00:58:35.548Z,95963.44
2023-04-01T01:01:06.717Z,95967.44
2023-04-01T01:03:41.138Z,95966.06
2023-04-01T01:06:30.717Z,95959.00
2023-04-01T01:09:14.542Z,95963.66
2023-04-01T01:11:50.483Z,95957.25
2023-04-01T01:14:32.453Z,95960.00
2023-04-01T01:17:13.911Z,95955.19
2023-04-01T01:20:02.811Z,95958.13
2023-04-01T01:22:53.126Z,95958.53
2023-04-01T01:25:36.377Z,95950.88
2023-04-01T01:28:26.877Z,95946.63
2023-04-01T01:31:06.329Z,95948.28
2023-04-01T01:33:51.151Z,95953.25
2023-04-01T01:36:26.416Z,95950.03
2023-04-01T01:38:58.486Z,95944.22
2023-04-01T01:41:31.105Z,95936.47
2023-04-01T01:44:05.956Z,95949.56
2023-04-01T01:46:37.233Z,95941.91
2023-04-01T01:49:10.601Z,95935.09
2023-04-01T01:51:44.401Z,95939.66
2023-04-01T01:54:17.738Z,95943.66
2023-04-01T01:56:52.345Z,95942.13
2023-04-01T01:59:25.207Z,95933.16
2023-04-01T02:02:00.817Z,95932.16
2023-04-01T02:04:32.100Z,95942.22
2023-04-01T02:07:08.638Z,95944.03
2023-04-01T02:09:39.741Z,95938.91
2023-04-01T02:12:14.231Z,95926.50
2023-04-01T02:14:48.248Z,95928.75
2023-04-01T02:17:21.569Z,95927.94
2023-04-01T02:19:56.405Z,95924.66
2023-04-01T02:22:35.986Z,95923.13
2023-04-01T02:25:11.370Z,95922.66
2023-04-01T02:27:44.409Z,95916.81
2023-04-01T02:30:17.038Z,95904.47
2023-04-01T02:32:48.330Z,95905.38
2023-04-01T02:35:20.995Z,95916.66
2023-04-01T02:37:56.397Z,95906.91
2023-04-01T02:40:27.330Z,95914.94
2023-04-01T02:42:58.131Z,95916.19
2023-04-01T02:45:29.094Z,95902.47
2023-04-01T02:47:59.958Z,95903.97
2023-04-01T02:50:31.467Z,95907.88
2023-04-01T02:53:07.497Z,95906.44
2023-04-01T02:55:39.345Z,95902.19
2023-04-01T02:58:10.292Z,95907.94
2023-04-01T03:00:41.442Z,95888.50
2023-04-01T03:03:14.161Z,95899.59
2023-04-01T03:05:45.312Z,95895.13
2023-04-01T03:08:18.692Z,95890.63
2023-04-01T03:10:49.528Z,95886.94
2023-04-01T03:13:20.217Z,95882.47
2023-04-01T03:15:51.182Z,95881.25
2023-04-01T03:18:22.004Z,95876.78
2023-04-01T03:20:52.919Z,95878.59
2023-04-01T03:23:26.274Z,95874.31
2023-04-01T03:25:57.222Z,95879.63
2023-04-01T03:28:28.054Z,95878.69
2023-04-01T03:30:59.028Z,95873.94
2023-04-01T03:33:30.214Z,95880.59
2023-04-01T03:36:01.260Z,95873.16
2023-04-01T03:38:34.923Z,95869.75
2023-04-01T03:41:06.463Z,95883.38
2023-04-01T03:43:37.544Z,95883.31
2023-04-01T03:46:09.284Z,95888.19
2023-04-01T03:48:40.305Z,95882.81
2023-04-01T03:51:12.015Z,95883.00
2023-04-01T03:53:45.412Z,95885.03
2023-04-01T03:56:16.209Z,95879.09
2023-04-01T03:58:47.184Z,95876.44
2023-04-01T04:01:19.274Z,95868.63
2023-04-01T04:03:51.680Z,95868.94
2023-04-01T04:06:23.731Z,95869.25
2023-04-01T04:08:57.584Z,95875.16
2023-04-01T04:11:28.773Z,95866.78
2023-04-01T04:13:59.598Z,95861.91
2023-04-01T04:16:30.863Z,95873.16
2023-04-01T04:19:05.129Z,95876.25
2023-04-01T04:21:36.205Z,95866.41
2023-04-01T04:24:10.733Z,95869.25
2023-04-01T04:27:01.602Z,95863.44
2023-04-01T04:29:32.620Z,95881.78
2023-04-01T04:32:04.561Z,95873.34
2023-04-01T04:34:35.611Z,95873.59
2023-04-01T04:37:06.424Z,95874.97
2023-04-01T04:39:42.943Z,95870.03
2023-04-01T04:42:13.713Z,95876.25
2023-04-01T04:44:45.113Z,95872.66
2023-04-01T04:47:16.129Z,95873.78
2023-04-01T04:49:47.897Z,95866.75
2023-04-01T04:52:19.284Z,95868.00
2023-04-01T04:54:52.866Z,95847.31
2023-04-01T04:57:23.779Z,95856.50
2023-04-01T04:59:59.096Z,95851.78
2023-04-01T05:02:54.274Z,95854.59
2023-04-01T05:05:25.181Z,95846.97
2023-04-01T05:07:55.926Z,95842.16
2023-04-01T05:10:29.400Z,95835.34
2023-04-01T05:13:00.046Z,95843.00
2023-04-01T05:15:31.254Z,95845.66
2023-04-01T05:18:03.054Z,95834.88
2023-04-01T05:20:34.149Z,95823.41
2023-04-01T05:23:05.656Z,95844.53
2023-04-01T05:25:42.047Z,95833.53
2023-04-01T05:28:13.760Z,95828.59
2023-04-01T05:30:47.740Z,95835.78
2023-04-01T05:33:30.107Z,95824.31
2023-04-01T05:36:01.231Z,95826.91
2023-04-01T05:38:31.853Z,95836.97
2023-04-01T05:41:07.268Z,95823.88
2023-04-01T05:43:41.751Z,95824.94
2023-04-01T05:46:33.088Z,95814.13
2023-04-01T05:49:22.887Z,95824.75
2023-04-01T05:51:55.307Z,95820.69
2023-04-01T05:54:26.140Z,95817.47
2023-04-01T05:56:59.677Z,95814.22
2023-04-01T05:59:32.420Z,95809.75
2023-04-01T06:02:03.893Z,95802.81
2023-04-01T06:04:41.528Z,95801.59
2023-04-01T06:07:16.570Z,95805.28
2023-04-01T06:09:49.149Z,95808.16
2023-04-01T06:12:35.277Z,95797.50
2023-04-01T06:15:17.704Z,95806.09
2023-04-01T06:18:08.338Z,95810.16
2023-04-01T06:20:51.360Z,95798.94
2023-04-01T06:23:37.465Z,95811.84
2023-04-01T06:26:29.039Z,95808.38
2023-04-01T06:29:34.507Z,95807.72
2023-04-01T06:32:34.482Z,95817.56
2023-04-01T06:35:29.113Z,95816.97
2023-04-01T06:38:23.745Z,95829.66
2023-04-01T06:41:38.743Z,95820.25
2023-04-01T06:44:20.816Z,95824.94
2023-04-01T06:47:27.958Z,95812.47
2023-04-01T06:50:28.448Z,95815.53
2023-04-01T06:53:25.335Z,95801.19
2023-04-01T06:56:36.567Z,95790.09
2023-04-01T06:59:17.029Z,95775.53
2023-04-01T07:01:53.666Z,95772.06
2023-04-01T07:04:31.008Z,95756.63
2023-04-01T07:07:04.619Z,95749.06
2023-04-01T07:09:41.185Z,95752.94
2023-04-01T07:12:50.017Z,95762.75
2023-04-01T07:15:42.986Z,95763.63
2023-04-01T07:18:20.504Z,95753.03
2023-04-01T07:20:56.138Z,95754.22
2023-04-01T07:23:30.342Z,95745.88
2023-04-01T07:26:24.931Z,95733.81
2023-04-01T07:29:04.675Z,95726.00
2023-04-01T07:31:56.979Z,95715.75
2023-04-01T07:34:31.513Z,95723.78
2023-04-01T07:37:14.293Z,95727.63
2023-04-01T07:39:55.965Z,95727.28
2023-04-01T07:42:52.808Z,95721.31
2023-04-01T07:45:28.308Z,95701.03
2023-04-01T07:48:16.481Z,95707.28
2023-04-01T07:50:56.858Z,95699.88
2023-04-01T07:53:40.262Z,95704.16
2023-04-01T07:56:15.638Z,95703.34
2023-04-01T07:59:00.191Z,95684.50
2023-04-01T08:01:57.597Z,95693.38
2023-04-01T08:04:43.801Z,95688.44
2023-04-01T08:07:19.658Z,95698.09
2023-04-01T08:10:19.288Z,95677.50
2023-04-01T08:13:20.357Z,95699.16
2023-04-01T08:16:16.769Z,95668.94
2023-04-01T08:19:06.460Z,95660.31
2023-04-01T08:21:39.805Z,95668.72
2023-04-01T08:24:22.824Z,95660.63
2023-04-01T08:27:02.944Z,95647.78
2023-04-01T08:29:44.358Z,95644.97
2023-04-01T08:32:21.097Z,95642.28
2023-04-01T08:34:59.490Z,95633.19
2023-04-01T08:37:43.254Z,95635.56
2023-04-01T08:40:45.781Z,95642.34
2023-04-01T08:43:36.302Z,95635.97
2023-04-01T08:46:23.661Z,95638.81
2023-04-01T08:49:10.743Z,95637.97
2023-04-01T08:52:09.661Z,95638.13
2023-04-01T08:55:04.776Z,95628.97
2023-04-01T08:58:32.709Z,95622.56
2023-04-01T09:01:30.522Z,95615.63
2023-04-01T09:04:21.457Z,95623.44
2023-04-01T09:07:03.030Z,95612.25
2023-04-01T09:10:07.083Z,95613.16
2023-04-01T09:12:58.975Z,95614.69
2023-04-01T09:15:51.768Z,95597.69
2023-04-01T09:18:46.493Z,95604.84
2023-04-01T09:21:36.709Z,95601.19
2023-04-01T09:24:44.000Z,95601.63
2023-04-01T09:27:24.142Z,95598.63
2023-04-01T09:30:48.944Z,95603.22
2023-04-01T09:34:00.981Z,95604.31
2023-04-01T09:36:50.080Z,95604.44
2023-04-01T09:39:41.129Z,95605.25
2023-04-01T09:42:39.398Z,95604.97
2023-04-01T09:45:34.784Z,95605.09
2023-04-01T09:48:29.687Z,95610.56
2023-04-01T09:51:10.223Z,95611.69
2023-04-01T09:53:54.656Z,95607.94
2023-04-01T09:57:04.332Z,95613.31
2023-04-01T10:00:01.541Z,95601.75
2023-04-01T10:03:07.079Z,95604.69
2023-04-01T10:06:40.694Z,95606.84
2023-04-01T10:09:55.626Z,95590.69
2023-04-01T10:12:59.011Z,95579.59
2023-04-01T10:15:49.861Z,95589.63
2023-04-01T10:18:54.814Z,95577.22
2023-04-01T10:21:58.240Z,95571.28
2023-04-01T10:24:51.826Z,95558.09
2023-04-01T10:27:54.069Z,95546.59
2023-04-01T10:31:16.531Z,95535.41
2023-04-01T10:34:29.118Z,95537.91
2023-04-01T10:37:01.141Z,95531.84
2023-04-01T10:40:34.184Z,95523.31
2023-04-01T10:44:01.590Z,95519.63
2023-04-01T10:47:13.022Z,95519.13
2023-04-01T10:50:29.590Z,95509.44
2023-04-01T10:53:42.397Z,95504.53
2023-04-01T10:56:45.901Z,95503.66
2023-04-01T11:00:11.981Z,95506.03
2023-04-01T11:03:18.225Z,95508.72
2023-04-01T11:06:48.941Z,95485.50
2023-04-01T11:09:57.003Z,95489.16
2023-04-01T11:12:50.033Z,95484.78
2023-04-01T11:15:38.923Z,95480.81
2023-04-01T11:18:38.242Z,95495.16
2023-04-01T11:21:41.743Z,95474.81
2023-04-01T11:24:25.812Z,95472.28
2023-04-01T11:27:28.602Z,95459.19
2023-04-01T11:30:20.637Z,95443.91
2023-04-01T11:32:59.183Z,95442.72
2023-04-01T11:36:09.331Z,95435.34
2023-04-01T11:39:03.657Z,95423.25
2023-04-01T11:42:07.016Z,95423.44
2023-04-01T11:44:41.384Z,95414.16
2023-04-01T11:47:58.668Z,95424.31
2023-04-01T11:50:44.162Z,95418.72
2023-04-01T11:53:23.325Z,95427.75
2023-04-01T11:56:17.603Z,95406.25
2023-04-01T11:59:13.658Z,95409.47
2023-04-01T12:01:56.200Z,95388.38
2023-04-01T12:04:58.193Z,95400.38
2023-04-01T12:07:46.486Z,95383.66
2023-04-01T12:10:23.295Z,95390.16
2023-04-01T12:13:03.648Z,95382.75
2023-04-01T12:15:42.796Z,95399.84
2023-04-01T12:18:21.812Z,95380.28
2023-04-01T12:20:55.489Z,95385.47
2023-04-01T12:23:56.870Z,95386.31
2023-04-01T12:26:47.818Z,95377.19
2023-04-01T12:29:48.853Z,95373.69
2023-04-01T12:32:29.813Z,95378.56
2023-04-01T12:35:18.721Z,95379.41
2023-04-01T12:38:00.135Z,95383.22
2023-04-01T12:40:58.234Z,95382.16
2023-04-01T12:43:53.225Z,95382.69
2023-04-01T12:46:33.654Z,95360.06
2023-04-01T12:49:26.862Z,95362.78
2023-04-01T12:52:10.865Z,95368.69
2023-04-01T12:55:13.279Z,95361.97
2023-04-01T12:58:19.953Z,95364.38
2023-04-01T13:01:28.256Z,95360.03
2023-04-01T13:04:33.720Z,95342.25
2023-04-01T13:07:28.638Z,95350.34
2023-04-01T13:10:07.595Z,95344.41
2023-04-01T13:13:00.188Z,95344.94
2023-04-01T13:15:38.228Z,95337.41
2023-04-01T13:18:22.960Z,95339.56
2023-04-01T13:21:02.373Z,95331.75
2023-04-01T13:23:41.025Z,95335.78
2023-04-01T13:26:19.794Z,95323.41
2023-04-01T13:28:57.959Z,95318.31
2023-04-01T13:31:43.101Z,95307.78
2023-04-01T13:34:28.803Z,95318.59
2023-04-01T13:37:07.231Z,95313.72
2023-04-01T13:39:55.950Z,95308.31
2023-04-01T13:42:30.111Z,95316.94
2023-04-01T13:45:06.765Z,95321.25
2023-04-01T13:48:30.095Z,95311.56
2023-04-01T13:51:25.952Z,95311.53
2023-04-01T13:54:11.692Z,95312.63
2023-04-01T13:56:47.009Z,95309.13
2023-04-01T13:59:40.540Z,95303.47
2023-04-01T14:02:33.644Z,95310.19
2023-04-01T14:05:24.388Z,95311.25
2023-04-01T14:08:13.258Z,95303.44
2023-04-01T14:10:50.145Z,95295.66
2023-04-01T14:13:31.661Z,95289.44
2023-04-01T14:16:18.836Z,95314.19
2023-04-01T14:19:12.511Z,95377.19
2023-04-01T14:21:47.612Z,95395.72
2023-04-01T14:27:57.081Z,95516.69
2023-04-01T14:30:41.157Z,95533.66
2023-04-01T14:33:28.262Z,95573.22
2023-04-01T14:36:13.162Z,95594.94
2023-04-01T14:38:52.417Z,95609.72
2023-04-01T14:41:33.166Z,95616.84
2023-04-01T14:44:35.238Z,95620.53
2023-04-01T14:47:29.699Z,95608.34
2023-04-01T14:50:11.085Z,95624.69
2023-04-01T14:52:44.599Z,95634.84
2023-04-01T14:55:39.778Z,95616.66
2023-04-01T14:58:16.040Z,95605.38
2023-04-01T15:01:02.029Z,95597.63
2023-04-01T15:03:36.761Z,95590.97
2023-04-01T15:06:45.618Z,95568.53
2023-04-01T15:09:26.467Z,95563.28
2023-04-01T15:12:10.652Z,95594.63
2023-04-01T15:14:55.607Z,95588.81
2023-04-01T15:17:53.932Z,95587.94
2023-04-01T15:20:42.322Z,95600.22
2023-04-01T15:23:24.617Z,95581.75
2023-04-01T15:26:15.743Z,95560.19
2023-04-01T15:29:01.619Z,95542.16
2023-04-01T15:31:37.519Z,95514.56
2023-04-01T15:34:36.374Z,95487.94
2023-04-01T15:37:16.236Z,95490.66
2023-04-01T15:39:59.049Z,95479.81
2023-04-01T15:42:51.905Z,95479.00
2023-04-01T15:45:38.415Z,95467.28
2023-04-01T15:48:27.718Z,95461.22
2023-04-01T15:51:15.860Z,95468.69
2023-04-01T15:54:21.115Z,95499.19
2023-04-01T15:57:06.446Z,95523.94
2023-04-01T15:59:54.344Z,95507.38
2023-04-01T16:02:34.805Z,95488.50
2023-04-01T16:05:12.988Z,95523.66
2023-04-01T16:07:59.893Z,95538.50
2023-04-01T16:10:42.511Z,95537.78
2023-04-01T16:13:32.550Z,95546.63
2023-04-01T16:16:15.050Z,95543.59
2023-04-01T16:18:59.465Z,95542.84
2023-04-01T16:21:41.407Z,95529.75
2023-04-01T16:24:23.389Z,95523.44
2023-04-01T16:26:59.068Z,95541.03
2023-04-01T16:29:37.233Z,95550.34
2023-04-01T16:32:21.731Z,95566.88
2023-04-01T16:35:04.468Z,95563.09
2023-04-01T16:37:41.664Z,95555.03
2023-04-01T16:40:30.221Z,95542.66
2023-04-01T16:43:10.159Z,95546.94
2023-04-01T16:45:45.797Z,95564.50
2023-04-01T16:48:19.995Z,95565.31
2023-04-01T16:51:02.943Z,95566.50
2023-04-01T16:53:45.775Z,95574.84
2023-04-01T16:56:25.406Z,95565.22
2023-04-01T16:59:06.764Z,95571.97
2023-04-01T17:01:50.508Z,95563.75
2023-04-01T17:04:31.223Z,95574.41
2023-04-01T17:07:16.158Z,95570.34
2023-04-01T17:10:03.594Z,95572.44
2023-04-01T17:12:42.583Z,95571.25
2023-04-01T17:15:25.949Z,95571.03
2023-04-01T17:18:03.716Z,95573.63
2023-04-01T17:20:43.690Z,95572.47
2023-04-01T17:23:23.710Z,95571.28
2023-04-01T17:26:06.922Z,95596.06
2023-04-01T17:28:53.912Z,95600.72
2023-04-01T17:31:42.036Z,95595.88
2023-04-01T17:34:30.359Z,95595.66
2023-04-01T17:37:13.614Z,95606.50
2023-04-01T17:40:01.271Z,95606.38
2023-04-01T17:42:43.825Z,95622.56
2023-04-01T17:45:26.769Z,95629.56
2023-04-01T17:48:05.649Z,95630.19
2023-04-01T17:50:53.938Z,95631.66
2023-04-01T17:53:45.963Z,95642.94
2023-04-01T17:56:26.909Z,95644.78
2023-04-01T17:59:07.362Z,95646.00
2023-04-01T18:01:53.873Z,95634.06
2023-04-01T18:04:55.227Z,95646.53
2023-04-01T18:08:05.665Z,95664.31
2023-04-01T18:10:42.519Z,95791.03
2023-04-01T18:13:40.319Z,95780.38
2023-04-01T18:16:30.140Z,95815.59
2023-04-01T18:19:13.662Z,95814.59
2023-04-01T18:21:49.924Z,95812.91
2023-04-01T18:24:30.999Z,95805.38
2023-04-01T18:27:07.724Z,95818.69
2023-04-01T18:29:50.557Z,95784.50
2023-04-01T18:32:32.447Z,95789.22
2023-04-01T18:35:23.322Z,95813.78
2023-04-01T18:38:00.588Z,95821.56
2023-04-01T18:40:38.495Z,95811.97
2023-04-01T18:43:26.628Z,95798.31
2023-04-01T18:46:03.434Z,95775.00
2023-04-01T18:48:53.729Z,95758.13
2023-04-01T18:51:39.260Z,95770.13
2023-04-01T18:54:17.910Z,95782.63
2023-04-01T18:56:49.851Z,95784.56
2023-04-01T18:59:30.576Z,95759.91
2023-04-01T19:02:08.726Z,95774.09
2023-04-01T19:04:44.040Z,95780.44
2023-04-01T19:07:46.869Z,95755.19
2023-04-01T19:10:21.610Z,95773.59
2023-04-01T19:13:04.744Z,95770.56
2023-04-01T19:15:41.734Z,95763.19
2023-04-01T19:18:42.284Z,95742.06
2023-04-01T19:21:20.603Z,95736.03
2023-04-01T19:24:17.108Z,95740.19
2023-04-01T19:26:56.012Z,95752.72
2023-04-01T19:29:41.071Z,95766.06
2023-04-01T19:32:21.024Z,95773.72
2023-04-01T19:35:02.088Z,95777.06
2023-04-01T19:37:42.796Z,95785.09
2023-04-01T19:40:33.110Z,95792.47
2023-04-01T19:43:07.911Z,95783.72
2023-04-01T19:45:45.462Z,95785.81
2023-04-01T19:48:33.098Z,95801.13
2023-04-01T19:51:10.551Z,95802.59
2023-04-01T19:53:47.631Z,95813.84
2023-04-01T19:56:23.736Z,95812.63
2023-04-01T19:59:00.184Z,95816.31
2023-04-01T20:01:44.745Z,95814.50
2023-04-01T20:04:20.450Z,95824.13
2023-04-01T20:07:01.254Z,95815.97
2023-04-01T20:09:55.156Z,95827.19
2023-04-01T20:12:41.182Z,95816.97
2023-04-01T20:15:27.897Z,95832.31
2023-04-01T20:18:01.512Z,95834.78
2023-04-01T20:20:34.950Z,95832.31
2023-04-01T20:23:15.664Z,95839.88
2023-04-01T20:25:50.986Z,95835.16
2023-04-01T20:28:32.988Z,95839.47
2023-04-01T20:31:21.882Z,95842.53
2023-04-01T20:34:19.405Z,95829.03
2023-04-01T20:37:11.182Z,95833.94
2023-04-01T20:40:17.450Z,95843.94
2023-04-01T20:43:03.601Z,95835.31
2023-04-01T20:45:42.474Z,95837.75
2023-04-01T20:48:42.844Z,95846.53
2023-04-01T20:51:18.441Z,95838.75
2023-04-01T20:53:55.687Z,95846.91
2023-04-01T20:56:40.440Z,95847.28
2023-04-01T20:59:29.656Z,95837.69
2023-04-01T21:02:16.937Z,95839.75
2023-04-01T21:05:13.223Z,95841.16
2023-04-01T21:07:46.061Z,95842.81
2023-04-01T21:10:33.644Z,95846.28
2023-04-01T21:13:15.801Z,95855.69
2023-04-01T21:16:02.603Z,95855.03
2023-04-01T21:18:55.016Z,95853.41
2023-04-01T21:21:47.740Z,95852.38
2023-04-01T21:24:48.333Z,95854.44
2023-04-01T21:27:30.648Z,95850.50
2023-04-01T21:30:16.527Z,95843.03
2023-04-01T21:33:03.286Z,95856.94
2023-04-01T21:35:47.490Z,95845.28
2023-04-01T21:38:41.893Z,95851.84
2023-04-01T21:41:29.614Z,95849.19
2023-04-01T21:44:41.757Z,95845.91
2023-04-01T21:47:58.693Z,95843.72
2023-04-01T21:50:50.950Z,95848.00
2023-04-01T21:53:42.648Z,95852.03
2023-04-01T21:56:41.694Z,95856.84
2023-04-01T21:59:35.106Z,95857.25
2023-04-01T22:02:32.169Z,95849.72
2023-04-01T22:05:09.373Z,95843.63
2023-04-01T22:07:51.722Z,95847.94
2023-04-01T22:10:32.305Z,95849.56
2023-04-01T22:13:10.917Z,95861.03
2023-04-01T22:16:08.738Z,95855.75
2023-04-01T22:18:47.079Z,95867.72
2023-04-01T22:21:28.381Z,95871.28
2023-04-01T22:24:10.583Z,95874.59
2023-04-01T22:26:46.745Z,95883.84
2023-04-01T22:29:26.098Z,95883.38
2023-04-01T22:32:03.174Z,95893.09
2023-04-01T22:34:44.971Z,95892.09
2023-04-01T22:37:23.629Z,95898.09
2023-04-01T22:40:14.982Z,95901.31
2023-04-01T22:42:48.646Z,95902.44
2023-04-01T22:45:42.146Z,95904.09
2023-04-01T22:48:18.321Z,95911.09
2023-04-01T22:50:58.682Z,95919.34
2023-04-01T22:53:45.819Z,95918.56
2023-04-01T22:56:23.470Z,95918.25
2023-04-01T22:59:01.206Z,95910.13
2023-04-01T23:01:35.054Z,95910.44
2023-04-01T23:04:09.234Z,95903.38
2023-04-01T23:06:45.788Z,95912.47
2023-04-01T23:09:23.304Z,95907.97
2023-04-01T23:11:59.677Z,95911.75
2023-04-01T23:14:42.138Z,95890.53
2023-04-01T23:17:22.908Z,95895.16
2023-04-01T23:19:59.997Z,95893.22
2023-04-01T23:22:36.361Z,95907.91
2023-04-01T23:25:25.278Z,95900.41
2023-04-01T23:28:05.474Z,95897.41
2023-04-01T23:30:53.159Z,95892.97
2023-04-01T23:33:33.395Z,95895.38
2023-04-01T23:36:09.224Z,95899.38
2023-04-01T23:38:43.007Z,95894.25
2023-04-01T23:41:23.747Z,95889.38
2023-04-01T23:44:00.873Z,95881.44
2023-04-01T23:46:34.649Z,95878.88
2023-04-01T23:49:08.000Z,95880.88
2023-04-01T23:51:43.756Z,95890.75
2023-04-01T23:54:23.034Z,95879.25
2023-04-01T23:56:58.973Z,95866.63
2023-04-01T23:59:37.259Z,95885.81
